createdAt,value
2023-01-29T00:01:54.390Z,86.19
2023-01-29T00:04:20.972Z,85.74
2023-01-29T00:06:47.539Z,86.05
2023-01-29T00:09:14.439Z,85.87
2023-01-29T00:11:41.134Z,86.02
2023-01-29T00:14:07.972Z,86.01
2023-01-29T00:16:34.442Z,85.97
2023-01-29T00:19:02.546Z,86.24
2023-01-29T00:21:31.058Z,86.13
2023-01-29T00:23:58.862Z,86.25
2023-01-29T00:26:26.003Z,86.12
2023-01-29T00:28:52.507Z,86.23
2023-01-29T00:31:21.817Z,86.42
2023-01-29T00:33:48.965Z,86.29
2023-01-29T00:36:17.748Z,86.45
2023-01-29T00:38:44.807Z,86.40
2023-01-29T00:41:34.459Z,86.54
2023-01-29T00:44:20.223Z,86.53
2023-01-29T00:46:46.739Z,86.62
2023-01-29T00:49:13.251Z,86.63
2023-01-29T00:51:40.084Z,86.87
2023-01-29T00:54:07.037Z,86.77
2023-01-29T00:56:37.412Z,87.03
2023-01-29T00:59:04.585Z,86.76
2023-01-29T01:01:49.355Z,86.94
2023-01-29T01:04:15.874Z,87.03
2023-01-29T01:06:43.126Z,86.91
2023-01-29T01:09:43.613Z,86.84
2023-01-29T01:12:10.068Z,86.97
2023-01-29T01:14:36.497Z,87.14
2023-01-29T01:17:02.978Z,87.02
2023-01-29T01:19:29.512Z,87.03
2023-01-29T01:21:55.932Z,87.20
2023-01-29T01:24:23.392Z,87.04
2023-01-29T01:26:49.938Z,87.20
2023-01-29T01:29:16.413Z,87.41
2023-01-29T01:31:42.852Z,87.14
2023-01-29T01:34:09.310Z,87.41
2023-01-29T01:36:35.758Z,87.42
2023-01-29T01:39:02.225Z,87.34
2023-01-29T01:41:30.612Z,87.24
2023-01-29T01:44:00.131Z,87.20
2023-01-29T01:46:31.601Z,87.04
2023-01-29T01:49:05.007Z,87.27
2023-01-29T01:51:34.009Z,87.22
2023-01-29T01:54:05.644Z,87.14
2023-01-29T01:56:40.612Z,87.22
2023-01-29T01:59:14.570Z,87.35
2023-01-29T02:01:47.887Z,87.15
2023-01-29T02:04:36.912Z,87.20
2023-01-29T02:07:25.658Z,87.26
2023-01-29T02:09:56.672Z,87.08
2023-01-29T02:12:23.342Z,87.13
2023-01-29T02:14:51.776Z,87.29
2023-01-29T02:17:19.997Z,87.16
2023-01-29T02:20:19.748Z,87.36
2023-01-29T02:22:56.027Z,87.17
2023-01-29T02:25:58.004Z,87.23
2023-01-29T02:28:32.722Z,87.15
2023-01-29T02:31:09.528Z,87.13
2023-01-29T02:33:59.536Z,87.31
2023-01-29T02:36:45.435Z,86.95
2023-01-29T02:39:17.373Z,86.62
2023-01-29T02:42:25.215Z,86.66
2023-01-29T02:45:08.090Z,86.63
2023-01-29T02:47:42.588Z,86.30
2023-01-29T02:50:18.579Z,86.57
2023-01-29T02:53:03.268Z,86.51
2023-01-29T02:55:45.530Z,86.61
2023-01-29T02:58:19.708Z,86.73
2023-01-29T03:00:48.001Z,86.50
2023-01-29T03:03:19.503Z,86.43
2023-01-29T03:05:57.080Z,86.41
2023-01-29T03:08:50.069Z,86.43
2023-01-29T03:11:17.779Z,86.52
2023-01-29T03:13:57.965Z,86.54
2023-01-29T03:16:37.133Z,86.69
2023-01-29T03:19:18.907Z,86.61
2023-01-29T03:21:51.219Z,87.00
2023-01-29T03:25:00.134Z,86.96
2023-01-29T03:27:55.286Z,86.91
2023-01-29T03:30:44.348Z,87.14
2023-01-29T03:33:13.192Z,87.04
2023-01-29T03:35:51.976Z,87.21
2023-01-29T03:38:19.686Z,87.07
2023-01-29T03:40:53.048Z,87.16
2023-01-29T03:43:26.557Z,87.16
2023-01-29T03:45:58.724Z,87.22
2023-01-29T03:48:35.083Z,87.46
2023-01-29T03:51:35.462Z,87.42
2023-01-29T03:54:20.148Z,87.41
2023-01-29T03:57:02.894Z,87.47
2023-01-29T03:59:45.042Z,87.52
2023-01-29T04:02:29.963Z,87.51
2023-01-29T04:04:59.808Z,87.49
2023-01-29T04:07:29.730Z,87.46
2023-01-29T04:10:01.603Z,87.53
2023-01-29T04:12:38.532Z,87.44
2023-01-29T04:15:09.998Z,87.64
2023-01-29T04:17:41.592Z,87.53
2023-01-29T04:20:09.497Z,87.47
2023-01-29T04:22:39.426Z,87.39
2023-01-29T04:25:16.086Z,87.53
2023-01-29T04:28:23.352Z,87.41
2023-01-29T04:31:05.439Z,87.15
2023-01-29T04:33:40.016Z,87.37
2023-01-29T04:36:38.200Z,87.36
2023-01-29T04:39:54.175Z,87.20
2023-01-29T04:42:33.239Z,87.08
2023-01-29T04:45:11.122Z,87.12
2023-01-29T04:48:07.609Z,87.14
2023-01-29T04:50:55.945Z,86.95
2023-01-29T04:53:36.238Z,86.82
2023-01-29T04:56:48.268Z,86.74
2023-01-29T04:59:21.150Z,86.54
2023-01-29T05:01:48.817Z,86.82
2023-01-29T05:04:19.681Z,86.65
2023-01-29T05:06:49.157Z,86.42
2023-01-29T05:09:17.764Z,86.97
2023-01-29T05:11:47.485Z,86.59
2023-01-29T05:14:17.130Z,86.46
2023-01-29T05:16:47.597Z,86.21
2023-01-29T05:19:16.127Z,86.29
2023-01-29T05:21:46.255Z,86.18
2023-01-29T05:24:18.390Z,86.55
2023-01-29T05:27:06.715Z,86.18
2023-01-29T05:29:33.212Z,86.33
2023-01-29T05:31:59.949Z,86.28
2023-01-29T05:34:26.587Z,86.23
2023-01-29T05:36:53.516Z,86.25
2023-01-29T05:39:20.001Z,86.19
2023-01-29T05:41:46.445Z,86.11
2023-01-29T05:44:13.228Z,85.89
2023-01-29T05:46:39.819Z,86.00
2023-01-29T05:49:06.750Z,85.90
2023-01-29T05:51:33.265Z,85.58
2023-01-29T05:53:59.691Z,85.37
2023-01-29T05:56:26.218Z,85.74
2023-01-29T05:58:52.754Z,85.86
2023-01-29T06:01:22.421Z,85.77
2023-01-29T06:03:48.815Z,85.58
2023-01-29T06:06:16.346Z,85.82
2023-01-29T06:08:42.937Z,85.73
2023-01-29T06:11:11.759Z,85.73
2023-01-29T06:13:38.892Z,85.65
2023-01-29T06:16:10.311Z,85.66
2023-01-29T06:18:37.536Z,85.76
2023-01-29T06:21:06.059Z,85.63
2023-01-29T06:23:33.607Z,85.62
2023-01-29T06:26:05.685Z,85.54
2023-01-29T06:28:32.456Z,85.67
2023-01-29T06:31:11.543Z,85.43
2023-01-29T06:33:47.553Z,85.36
2023-01-29T06:36:14.013Z,85.40
2023-01-29T06:38:40.436Z,85.19
2023-01-29T06:41:12.066Z,85.25
2023-01-29T06:43:39.672Z,85.22
2023-01-29T06:46:08.201Z,85.02
2023-01-29T06:48:35.214Z,85.28
2023-01-29T06:51:07.020Z,85.38
2023-01-29T06:53:34.492Z,85.09
2023-01-29T06:56:01.141Z,84.94
2023-01-29T06:58:27.634Z,84.96
2023-01-29T07:00:54.235Z,84.73
2023-01-29T07:03:20.754Z,84.89
2023-01-29T07:05:51.989Z,84.60
2023-01-29T07:08:18.899Z,84.73
2023-01-29T07:10:45.485Z,84.66
2023-01-29T07:13:11.896Z,84.50
2023-01-29T07:15:38.330Z,84.67
2023-01-29T07:18:12.048Z,84.49
2023-01-29T07:20:40.636Z,84.50
2023-01-29T07:23:10.834Z,84.61
2023-01-29T07:25:37.739Z,84.54
2023-01-29T07:28:04.822Z,84.68
2023-01-29T07:30:31.476Z,84.75
2023-01-29T07:33:07.523Z,84.76
2023-01-29T07:35:42.350Z,84.59
2023-01-29T07:38:10.348Z,84.87
2023-01-29T07:40:37.081Z,84.88
2023-01-29T07:43:06.583Z,84.71
2023-01-29T07:45:35.122Z,84.72
2023-01-29T07:48:01.565Z,84.66
2023-01-29T07:50:28.051Z,84.61
2023-01-29T07:52:54.984Z,84.51
2023-01-29T07:59:16.471Z,84.62
2023-01-29T08:01:42.963Z,84.42
2023-01-29T08:04:09.477Z,84.02
2023-01-29T08:06:35.958Z,84.43
2023-01-29T08:09:02.554Z,84.33
2023-01-29T08:11:29.060Z,84.21
2023-01-29T08:13:56.659Z,84.17
2023-01-29T08:16:23.405Z,84.16
2023-01-29T08:18:49.862Z,83.99
2023-01-29T08:21:16.466Z,83.85
2023-01-29T08:23:42.896Z,83.84
2023-01-29T08:26:09.448Z,83.76
2023-01-29T08:28:38.602Z,83.86
2023-01-29T08:31:12.851Z,83.70
2023-01-29T08:33:39.611Z,83.73
2023-01-29T08:36:07.380Z,83.48
2023-01-29T08:38:33.964Z,83.53
2023-01-29T08:41:00.442Z,83.61
2023-01-29T08:43:26.929Z,83.58
2023-01-29T08:45:53.406Z,83.42
2023-01-29T08:48:20.059Z,83.40
2023-01-29T08:50:46.467Z,83.32
2023-01-29T08:53:12.944Z,83.33
2023-01-29T08:55:40.539Z,83.23
2023-01-29T08:58:09.043Z,83.29
2023-01-29T09:00:36.037Z,83.20
2023-01-29T09:03:17.553Z,82.73
2023-01-29T09:05:44.049Z,82.72
2023-01-29T09:08:10.637Z,82.70
2023-01-29T09:10:37.239Z,82.37
2023-01-29T09:13:04.141Z,82.16
2023-01-29T09:15:30.969Z,82.29
2023-01-29T09:17:57.486Z,81.98
2023-01-29T09:20:24.516Z,81.92
2023-01-29T09:22:59.084Z,81.65
2023-01-29T09:25:25.631Z,81.69
2023-01-29T09:27:54.232Z,81.54
2023-01-29T09:30:20.872Z,81.11
2023-01-29T09:32:53.586Z,81.26
2023-01-29T09:35:23.625Z,81.21
2023-01-29T09:37:51.332Z,81.57
2023-01-29T09:40:35.735Z,81.18
2023-01-29T09:43:07.159Z,81.19
2023-01-29T09:45:39.525Z,80.88
2023-01-29T09:48:13.200Z,80.95
2023-01-29T09:50:44.133Z,80.97
2023-01-29T09:53:39.232Z,80.84
2023-01-29T09:56:13.229Z,81.09
2023-01-29T09:58:42.381Z,80.89
2023-01-29T10:01:29.329Z,80.37
2023-01-29T10:04:21.129Z,80.41
2023-01-29T10:07:11.220Z,80.20
2023-01-29T10:09:43.602Z,80.26
2023-01-29T10:12:22.135Z,80.25
2023-01-29T10:15:04.813Z,80.36
2023-01-29T10:18:00.246Z,80.34
2023-01-29T10:21:01.823Z,80.27
2023-01-29T10:23:38.575Z,80.23
2023-01-29T10:26:05.173Z,80.33
2023-01-29T10:28:46.467Z,80.17
2023-01-29T10:31:28.560Z,80.33
2023-01-29T10:34:03.382Z,80.35
2023-01-29T10:36:42.885Z,80.47
2023-01-29T10:39:18.669Z,80.83
2023-01-29T10:41:45.096Z,80.36
2023-01-29T10:44:20.723Z,80.45
2023-01-29T10:47:13.509Z,80.53
2023-01-29T10:50:06.547Z,80.48
2023-01-29T10:52:35.926Z,80.41
2023-01-29T10:55:21.156Z,80.16
2023-01-29T10:58:08.924Z,80.17
2023-01-29T11:00:41.356Z,80.14
2023-01-29T11:03:28.028Z,80.07
2023-01-29T11:05:58.184Z,79.65
2023-01-29T11:09:00.099Z,79.92
2023-01-29T11:11:46.181Z,80.17
2023-01-29T11:14:22.872Z,80.05
2023-01-29T11:16:49.659Z,79.90
2023-01-29T11:19:16.668Z,80.18
2023-01-29T11:21:56.590Z,79.59
2023-01-29T11:24:23.719Z,79.54
2023-01-29T11:26:51.859Z,79.42
2023-01-29T11:29:30.421Z,79.77
2023-01-29T11:31:58.715Z,79.78
2023-01-29T11:34:27.749Z,79.54
2023-01-29T11:37:02.888Z,79.76
2023-01-29T11:39:32.192Z,79.77
2023-01-29T11:42:04.428Z,79.77
2023-01-29T11:44:40.766Z,79.89
2023-01-29T11:47:16.453Z,79.77
2023-01-29T11:49:49.571Z,79.89
2023-01-29T11:52:20.554Z,79.82
2023-01-29T11:54:51.983Z,80.09
2023-01-29T11:57:27.721Z,80.01
2023-01-29T11:59:56.706Z,80.03
2023-01-29T12:02:31.866Z,80.08
2023-01-29T12:05:04.711Z,80.29
2023-01-29T12:07:32.748Z,79.92
2023-01-29T12:10:00.198Z,80.53
2023-01-29T12:12:32.601Z,80.54
2023-01-29T12:15:21.354Z,80.65
2023-01-29T12:17:56.298Z,80.60
2023-01-29T12:20:33.394Z,80.64
2023-01-29T12:23:03.489Z,81.09
2023-01-29T12:26:16.112Z,81.25
2023-01-29T12:29:13.430Z,81.29
2023-01-29T12:31:50.429Z,81.66
2023-01-29T12:34:32.502Z,81.31
2023-01-29T12:37:11.367Z,81.50
2023-01-29T12:39:37.858Z,81.39
2023-01-29T12:42:24.767Z,81.32
2023-01-29T12:45:01.414Z,81.27
2023-01-29T12:47:27.808Z,81.35
2023-01-29T12:50:00.560Z,81.28
2023-01-29T12:52:39.771Z,81.33
2023-01-29T12:55:19.568Z,81.33
2023-01-29T12:57:53.837Z,81.34
2023-01-29T13:00:27.086Z,81.40
2023-01-29T13:03:21.506Z,81.44
2023-01-29T13:05:52.448Z,81.45
2023-01-29T13:08:43.292Z,81.71
2023-01-29T13:11:26.649Z,81.50
2023-01-29T13:13:59.353Z,81.80
2023-01-29T13:16:45.230Z,81.71
2023-01-29T13:19:24.221Z,81.97
2023-01-29T13:21:53.054Z,81.82
2023-01-29T13:24:25.619Z,81.81
2023-01-29T13:26:52.209Z,81.88
2023-01-29T13:29:27.795Z,82.06
2023-01-29T13:31:56.679Z,81.94
2023-01-29T13:34:28.509Z,81.71
2023-01-29T13:37:04.256Z,81.67
2023-01-29T13:39:34.145Z,81.49
2023-01-29T13:42:02.854Z,81.73
2023-01-29T13:44:36.603Z,81.66
2023-01-29T13:47:07.231Z,81.59
2023-01-29T13:49:53.058Z,81.32
2023-01-29T13:53:02.250Z,81.36
2023-01-29T13:55:37.722Z,81.17
2023-01-29T13:58:15.806Z,80.99
2023-01-29T14:00:42.139Z,81.63
2023-01-29T14:03:08.850Z,81.49
2023-01-29T14:05:40.932Z,81.42
2023-01-29T14:08:14.648Z,81.31
2023-01-29T14:10:43.217Z,81.37
2023-01-29T14:13:15.705Z,81.55
2023-01-29T14:15:42.348Z,81.47
2023-01-29T14:18:08.723Z,81.38
2023-01-29T14:20:46.071Z,81.72
2023-01-29T14:23:40.407Z,81.74
2023-01-29T14:26:30.208Z,82.04
2023-01-29T14:29:07.678Z,81.82
2023-01-29T14:31:52.178Z,81.99
2023-01-29T14:34:30.988Z,81.94
2023-01-29T14:37:21.993Z,81.99
2023-01-29T14:39:55.709Z,82.00
2023-01-29T14:42:37.591Z,82.07
2023-01-29T14:45:22.038Z,81.93
2023-01-29T14:47:48.484Z,82.27
2023-01-29T14:50:33.267Z,82.07
2023-01-29T14:53:15.475Z,81.93
2023-01-29T14:56:05.447Z,82.07
2023-01-29T14:58:42.758Z,82.20
2023-01-29T15:01:36.224Z,82.11
2023-01-29T15:04:12.984Z,82.02
2023-01-29T15:06:49.791Z,82.00
2023-01-29T15:09:37.032Z,82.31
2023-01-29T15:12:44.194Z,82.13
2023-01-29T15:15:35.372Z,82.26
2023-01-29T15:18:29.116Z,82.08
2023-01-29T15:21:04.901Z,82.13
2023-01-29T15:23:34.224Z,82.26
2023-01-29T15:26:04.376Z,82.17
2023-01-29T15:28:33.123Z,82.11
2023-01-29T15:31:02.418Z,82.28
2023-01-29T15:33:29.195Z,82.31
2023-01-29T15:36:08.946Z,82.65
2023-01-29T15:38:36.130Z,82.44
2023-01-29T15:41:18.536Z,82.40
2023-01-29T15:43:50.590Z,82.41
2023-01-29T15:46:25.576Z,82.74
2023-01-29T15:48:55.545Z,82.67
2023-01-29T15:51:25.159Z,82.76
2023-01-29T15:54:04.450Z,83.17
2023-01-29T15:56:52.309Z,83.02
2023-01-29T15:59:26.041Z,83.16
2023-01-29T16:01:53.831Z,83.10
2023-01-29T16:04:30.908Z,83.17
2023-01-29T16:06:58.967Z,83.45
2023-01-29T16:09:27.128Z,83.52
2023-01-29T16:11:57.738Z,83.89
2023-01-29T16:14:25.744Z,83.54
2023-01-29T16:16:52.893Z,83.65
2023-01-29T16:19:25.247Z,84.36
2023-01-29T16:21:56.499Z,84.92
2023-01-29T16:24:24.930Z,85.02
2023-01-29T16:26:58.372Z,85.36
2023-01-29T16:29:33.370Z,85.68
2023-01-29T16:32:02.579Z,85.79
2023-01-29T16:34:36.459Z,85.80
2023-01-29T16:37:06.566Z,86.14
2023-01-29T16:39:36.767Z,86.02
2023-01-29T16:42:12.325Z,86.58
2023-01-29T16:44:40.332Z,87.16
2023-01-29T16:47:13.115Z,87.40
2023-01-29T16:49:39.494Z,87.55
2023-01-29T16:52:18.039Z,87.82
2023-01-29T16:54:44.544Z,87.93
2023-01-29T16:57:18.213Z,87.76
2023-01-29T16:59:45.626Z,88.16
2023-01-29T17:02:33.330Z,88.26
2023-01-29T17:05:04.119Z,88.50
2023-01-29T17:07:32.464Z,88.51
2023-01-29T17:10:02.026Z,88.72
2023-01-29T17:12:30.422Z,88.59
2023-01-29T17:15:00.413Z,88.80
2023-01-29T17:17:35.785Z,88.79
2023-01-29T17:20:13.990Z,88.80
2023-01-29T17:22:40.509Z,89.01
2023-01-29T17:25:07.640Z,88.77
2023-01-29T17:27:34.065Z,88.52
2023-01-29T17:30:00.544Z,88.52
2023-01-29T17:32:44.333Z,88.57
2023-01-29T17:35:14.252Z,88.36
2023-01-29T17:37:41.168Z,88.21
2023-01-29T17:40:13.712Z,87.99
2023-01-29T17:42:40.943Z,88.13
2023-01-29T17:45:08.196Z,88.23
2023-01-29T17:47:34.579Z,87.65
2023-01-29T17:50:00.957Z,87.69
2023-01-29T17:52:27.381Z,87.65
2023-01-29T17:54:53.753Z,87.49
2023-01-29T17:57:20.156Z,87.33
2023-01-29T17:59:46.843Z,87.30
2023-01-29T18:02:29.179Z,87.38
2023-01-29T18:04:56.223Z,87.16
2023-01-29T18:07:22.791Z,87.11
2023-01-29T18:09:49.187Z,86.95
2023-01-29T18:12:15.633Z,87.01
2023-01-29T18:14:42.096Z,86.87
2023-01-29T18:17:08.486Z,86.99
2023-01-29T18:19:34.896Z,86.82
2023-01-29T18:22:01.310Z,86.78
2023-01-29T18:24:28.007Z,86.86
2023-01-29T18:26:54.461Z,86.97
2023-01-29T18:29:20.872Z,87.02
2023-01-29T18:31:50.548Z,87.01
2023-01-29T18:34:17.234Z,86.84
2023-01-29T18:36:46.937Z,86.97
2023-01-29T18:39:14.684Z,87.08
2023-01-29T18:41:41.062Z,87.10
2023-01-29T18:44:07.572Z,87.22
2023-01-29T18:46:34.012Z,87.30
2023-01-29T18:49:00.494Z,87.02
2023-01-29T18:51:26.912Z,87.01
2023-01-29T18:53:53.358Z,87.23
2023-01-29T18:56:20.293Z,87.15
2023-01-29T18:58:52.106Z,87.33
2023-01-29T19:01:19.738Z,87.37
2023-01-29T19:03:46.287Z,87.28
2023-01-29T19:06:13.214Z,87.36
2023-01-29T19:08:40.895Z,87.26
2023-01-29T19:11:08.923Z,87.29
2023-01-29T19:13:36.627Z,87.47
2023-01-29T19:16:09.205Z,87.59
2023-01-29T19:18:36.080Z,87.54
2023-01-29T19:21:10.849Z,87.49
2023-01-29T19:23:37.514Z,87.46
2023-01-29T19:26:04.249Z,87.50
2023-01-29T19:28:30.749Z,87.49
2023-01-29T19:30:58.040Z,87.65
2023-01-29T19:33:25.212Z,87.61
2023-01-29T19:35:51.693Z,87.44
2023-01-29T19:38:21.218Z,87.69
2023-01-29T19:40:48.384Z,87.94
2023-01-29T19:43:18.201Z,87.81
2023-01-29T19:45:50.907Z,87.87
2023-01-29T19:48:21.249Z,88.21
2023-01-29T19:50:55.176Z,88.03
2023-01-29T19:53:22.836Z,88.01
2023-01-29T19:55:57.751Z,88.24
2023-01-29T19:58:25.246Z,87.83
2023-01-29T20:00:56.393Z,88.23
2023-01-29T20:03:23.189Z,88.02
2023-01-29T20:05:49.671Z,88.30
2023-01-29T20:08:16.156Z,88.20
2023-01-29T20:10:47.025Z,88.20
2023-01-29T20:13:15.066Z,88.27
2023-01-29T20:15:52.098Z,88.45
2023-01-29T20:18:19.299Z,88.48
2023-01-29T20:20:47.925Z,88.47
2023-01-29T20:23:25.019Z,88.59
2023-01-29T20:26:02.356Z,88.43
2023-01-29T20:28:28.949Z,88.64
2023-01-29T20:30:56.443Z,88.74
2023-01-29T20:33:22.882Z,88.84
2023-01-29T20:36:01.028Z,88.87
2023-01-29T20:38:30.507Z,88.84
2023-01-29T20:41:05.968Z,88.90
2023-01-29T20:43:32.630Z,88.91
2023-01-29T20:45:59.702Z,88.93
2023-01-29T20:48:26.580Z,88.99
2023-01-29T20:50:54.158Z,88.96
2023-01-29T20:53:20.650Z,89.25
2023-01-29T20:55:47.320Z,89.32
2023-01-29T20:58:14.090Z,89.17
2023-01-29T21:00:41.361Z,89.66
2023-01-29T21:03:07.877Z,89.62
2023-01-29T21:05:34.280Z,89.47
2023-01-29T21:08:00.818Z,89.67
2023-01-29T21:10:27.247Z,89.94
2023-01-29T21:12:54.686Z,89.96
2023-01-29T21:15:21.433Z,90.25
2023-01-29T21:17:48.246Z,90.28
2023-01-29T21:20:15.119Z,90.13
2023-01-29T21:22:43.884Z,90.20
2023-01-29T21:25:10.878Z,90.61
2023-01-29T21:27:37.480Z,90.59
2023-01-29T21:30:04.851Z,91.11
2023-01-29T21:32:31.464Z,90.73
2023-01-29T21:34:57.895Z,91.17
2023-01-29T21:37:24.383Z,91.09
2023-01-29T21:39:50.844Z,91.18
2023-01-29T21:42:35.846Z,91.17
2023-01-29T21:45:02.230Z,91.30
2023-01-29T21:47:28.595Z,91.56
2023-01-29T21:49:55.006Z,91.60
2023-01-29T21:52:21.531Z,91.87
2023-01-29T21:54:49.200Z,91.83
2023-01-29T21:57:16.996Z,91.86
2023-01-29T21:59:43.837Z,91.95
2023-01-29T22:02:15.304Z,92.19
2023-01-29T22:04:42.392Z,92.43
2023-01-29T22:07:10.451Z,92.53
2023-01-29T22:09:37.256Z,92.36
2023-01-29T22:12:05.450Z,92.43
2023-01-29T22:14:32.071Z,92.67
2023-01-29T22:16:58.522Z,92.63
2023-01-29T22:19:29.265Z,92.88
2023-01-29T22:21:55.725Z,92.83
2023-01-29T22:24:22.563Z,92.94
2023-01-29T22:26:49.600Z,92.90
2023-01-29T22:29:19.579Z,92.90
2023-01-29T22:31:46.398Z,93.25
2023-01-29T22:34:14.181Z,93.04
2023-01-29T22:36:41.047Z,93.16
2023-01-29T22:39:08.635Z,93.19
2023-01-29T22:41:35.457Z,93.52
2023-01-29T22:44:01.990Z,93.48
2023-01-29T22:46:28.532Z,93.48
2023-01-29T22:48:54.971Z,93.58
2023-01-29T22:51:21.367Z,93.75
2023-01-29T22:53:53.119Z,93.81
2023-01-29T22:56:21.874Z,94.00
2023-01-29T22:58:52.818Z,93.75
2023-01-29T23:01:21.847Z,93.90
2023-01-29T23:03:48.622Z,94.03
2023-01-29T23:06:16.317Z,93.98
2023-01-29T23:08:42.829Z,94.23
2023-01-29T23:11:18.675Z,94.29
2023-01-29T23:13:50.820Z,94.33
2023-01-29T23:16:18.560Z,94.28
2023-01-29T23:18:45.842Z,94.14
2023-01-29T23:21:12.598Z,94.24
2023-01-29T23:23:39.128Z,94.33
2023-01-29T23:26:25.797Z,94.47
2023-01-29T23:28:52.671Z,94.31
2023-01-29T23:31:19.265Z,94.51
2023-01-29T23:33:45.689Z,94.49
2023-01-29T23:36:12.639Z,94.43
2023-01-29T23:38:39.058Z,94.68
2023-01-29T23:41:05.805Z,94.79
2023-01-29T23:43:32.705Z,94.96
2023-01-29T23:45:59.514Z,94.71
2023-01-29T23:48:26.087Z,94.77
2023-01-29T23:50:52.604Z,94.86
2023-01-29T23:53:19.103Z,94.84
2023-01-29T23:55:59.003Z,94.73
2023-01-29T23:58:26.228Z,94.83
